Abraham Lincoln Capital Airport
KSPI : now visible

Aeroporto :











RITROVATECI SU...

 
LOGIN :

Iscrizione | Disclaimer

   EN    FR    IT 

 









Sommario :    VFR   VFR Marginale   IFR   IFR Intensivo   IFR Molto Intensivo
Visibilità : 
Base nubi : 
>= 8 km
>= 3000ft
5 / 8 km
1000 / 3000 ft
1500m / 5 km
500 / 1000 ft
800 / 1500m
200 / 500 ft
< 800m
< 200 ft
Simboli :   Temporali  Nebbia  Neve Forte  Precipitazioni Forti  Vento > 20 kt







- Altitudine del aeroporto : 598 ft
- Codice IATA : SPI


KSPI - Abraham Lincoln Capital

ULTIMO METAR :
  • 210552Z AUTO 00000KT 10SM CLR 07/01 A2991 RMK AO2 SLP129 T00670006 10183 20061 402000028 51010

METARs OBSOLETI :
  • 210452Z AUTO 00000KT 10SM CLR 07/00 A2990 RMK AO2 SLP127 T00720000
  • 210352Z AUTO 23004KT 10SM CLR 09/00 A2990 RMK AO2 SLP124 T00890000

TAF KSPI
Valido dal 21 a 06 ore il 22 a 06 ore UTC


210520Z 2106/2206 VRB04KT P6SM SKC
FM211200 18005KT P6SM SKC
FM211900 16012G18KT P6SM FEW250
FM220200 16010KT P6SM SCT250
FIR KZKC / America del Nord



MetMap, La meteo Aeronautica in un colpo d'occhio ! - Copyright ORBIFLY Dicembre 2007 - Disclaimer

ORBIFLY MET'MAP TEAM :

Programmazione e sviluppo : Alexandra Zaïnal
Concezione e sviluppo : Baudouin d'Aumeries
Co-Programmazione e sviluppo : Marc-Olivier Méhu
Supporto tecnico e logistico : Manuel Goepfert
Aiuto per la traduzione : Arnaldo La Scala

Contatto : metmap@orbifly.com




FONTI E CREDITI :

   NOAA       Earth
Advisory